Welkom op de weersite van Veghel e.o.

Hopend op weer een interessant weer jaar.


Webcam Veghel  Webcam Veghel


Onweer radar Meer informatie blitzortung!


Regen radar Meer informatie rain snow radar


U vindt ons ook hier:

Het Weer Aktueel

European Weather Network

Weather Underground

Benelux Weer Netwerk

AWEKAS


Het weer levert geen direct gevaar op.    Er zijn geen waarschuwingen afgegeven.

METAR rapporten vliegvelden

   
EHAM - Amsterdam
Gewijzigd: 26-10-2020 13:55
Gedeeltelijk bewolkt  
Gedeeltelijk bewolkt  
   Wind: ZZW 31.5 km/h
Wind: ZZW 31.5 km/h
Temperatuur: 12°C
Dauwpunt: 7°C
Vochtigheid: 72%
Barometer: 998 hPa
Bewolking: Partly Cloudy
Zicht: meer dan 10 km
Bewolking: Gedeeltelijk bewolkt 2500 ft
EHAM 261255Z 21017KT 9999 SCT025 12/07 Q0998 NOSIG
EHEH - Eindhoven
Gewijzigd: 26-10-2020 13:55
Bewolking  
Bewolking  
   Wind: ZZW 20.4 km/h
Wind: ZZW 20.4 km/h
Temperatuur: 12°C
Dauwpunt: 7°C
Vochtigheid: 72%
Barometer: 1000 hPa
Bewolking: Overcast
Zicht: meer dan 10 km
Bewolking: Gedeeltelijk bewolkt 2900 ft,
Grotendeels bewolkt 3400 ft,
Bewolking 3800 ft
EHEH 261255Z AUTO 21011KT 9999 SCT029 BKN034 OVC038 12/07 Q1000 BLU NOSIG
EHGR - Gilze/Rijen
Gewijzigd: 26-10-2020 13:55
Bewolking  
Bewolking  
   Wind: ZZW 14.8 km/h
Wind: ZZW 14.8 km/h
Temperatuur: 12°C
Dauwpunt: 7°C
Vochtigheid: 72%
Barometer: 1000 hPa
Bewolking: Overcast
Zicht: meer dan 10 km
Bewolking: Licht bewolkt 2600 ft,
Grotendeels bewolkt 2900 ft,
Bewolking 3300 ft
EHGR 261255Z AUTO 21008KT 180V260 9999 FEW026 BKN029 OVC033 12/07 Q1000 BLU NOSIG
EHBK - Maastricht
Gewijzigd: 26-10-2020 13:55
Bewolking  
Bewolking  
   Wind: ZW 25.9 km/h
Wind: ZW 25.9 km/h
Temperatuur: 12°C
Dauwpunt: 6°C
Vochtigheid: 67%
Barometer: 1001 hPa
Bewolking: Overcast
Zicht: meer dan 10 km
Bewolking: Grotendeels bewolkt 2800 ft,
Bewolking 3200 ft
EHBK 261255Z AUTO 23014KT 200V260 9999 BKN028 OVC032 12/06 Q1001 TEMPO 22014G24KT
EHVK - Volkel
Gewijzigd: 26-10-2020 14:25
Grotendeels bewolkt  
Grotendeels bewolkt  
   Wind: ZZW 18.5 km/h
Wind: ZZW 18.5 km/h
Temperatuur: 12°C
Dauwpunt: 7°C
Vochtigheid: 72%
Barometer: 1000 hPa
Bewolking: Mostly Cloudy
Zicht: meer dan 10 km
Bewolking: Gedeeltelijk bewolkt 2900 ft,
Grotendeels bewolkt 3300 ft,
Grotendeels bewolkt 4100 ft
EHVK 261325Z AUTO 21010KT 190V250 9999 SCT029 BKN033 BKN041 12/07 Q1000 BLU NOSIG
EHFS - Vlissingen
Gewijzigd: 26-10-2020 13:55
Licht bewolkt  
Licht bewolkt  
   Wind: ZW 44.4 km/h
Wind: ZW 44.4 km/h
Temperatuur: 13°C
Dauwpunt: 8°C
Vochtigheid: 72%
Barometer: 999 hPa
Bewolking: Few Clouds
Zicht: meer dan 10 km
Bewolking: Licht bewolkt 2300 ft
EHFS 261255Z AUTO 22024KT 9999 FEW023/// 13/08 Q0999

Script ontwikkeld door  Saratoga-weather.org Aangepast voor de template door  Weerstation Leuven

Apparatuur in gebruik:

Weerstation
Davis VP2

Weerprogramma
WeatherLink

Weercomputer
Sponsor

Webleverancier
My provider

Davis VP2

WeatherLink

Sponsor

My provider